Time;durP1;ratioP1;P1;durP2;ratioP2;P2;SDS_P1;SDS_P2;PMS_P1;PMS_P2;Temp;Humidity;BMP_temperature;BMP_pressure;BME280_temperature;BME280_humidity;BME280_pressure;Samples;Min_cycle;Max_cycle;Signal;HPM_P1;HPM_P2
2021/12/16 00:03:28;;;;;;;11.65;5.53;;;;;;;;;;2585061;52;21035;-76
2021/12/16 00:09:00;;;;;;;11.10;5.72;;;;;;;;;;2292994;58;21137;-78
2021/12/16 00:19:30;;;;;;;11.73;5.97;;;;;;;;;;2292692;58;21046;-79
2021/12/16 00:31:15;;;;;;;10.48;5.47;;;;;;;;;;2293773;58;21115;-79
2021/12/16 00:33:45;;;;;;;11.02;5.15;;;;;;;;;;2529009;54;21070;-79
2021/12/16 00:36:13;;;;;;;8.70;4.78;;;;;;;;;;2529419;54;21118;-80
2021/12/16 00:38:45;;;;;;;15.82;6.00;;;;;;;;;;2294120;58;21105;-79
2021/12/16 00:41:12;;;;;;;12.35;6.07;;;;;;;;;;2294496;58;21634;-79
2021/12/16 00:43:46;;;;;;;15.50;6.30;;;;;;;;;;2529524;55;21094;-80
2021/12/16 00:46:28;;;;;;;14.87;5.78;;;;;;;;;;2294336;58;21130;-80
2021/12/16 00:54:31;;;;;;;13.27;5.75;;;;;;;;;;2294116;58;21030;-79
2021/12/16 00:57:03;;;;;;;19.45;6.20;;;;;;;;;;2530025;55;21070;-81
2021/12/16 00:59:35;;;;;;;17.90;6.00;;;;;;;;;;2530367;54;21074;-80
2021/12/16 01:02:16;;;;;;;10.55;5.30;;;;;;;;;;2529991;54;21134;-80
2021/12/16 01:05:09;;;;;;;22.75;7.22;;;;;;;;;;2530157;54;21138;-80
2021/12/16 01:07:57;;;;;;;21.87;6.93;;;;;;;;;;2529396;55;21077;-80
2021/12/16 01:35:23;;;;;;;20.37;8.32;;;;;;;;;;2293560;58;21138;-79
2021/12/16 01:38:29;;;;;;;22.37;8.68;;;;;;;;;;2294022;58;21162;-78
2021/12/16 01:41:41;;;;;;;16.75;7.82;;;;;;;;;;2528160;54;21058;-78
2021/12/16 01:49:49;;;;;;;19.30;8.68;;;;;;;;;;2289718;58;21082;-80
2021/12/16 01:55:14;;;;;;;24.17;9.07;;;;;;;;;;2278346;58;21110;-80
2021/12/16 01:57:45;;;;;;;24.92;10.63;;;;;;;;;;2529903;54;21078;-80
2021/12/16 02:00:18;;;;;;;20.37;8.98;;;;;;;;;;2529048;53;21086;-79
2021/12/16 02:02:49;;;;;;;17.95;7.87;;;;;;;;;;2529649;55;21126;-80
2021/12/16 02:05:29;;;;;;;25.83;9.93;;;;;;;;;;2529618;54;21123;-79
2021/12/16 02:10:53;;;;;;;22.48;9.43;;;;;;;;;;2273144;58;21098;-79
2021/12/16 02:13:41;;;;;;;25.20;10.32;;;;;;;;;;2529314;55;21054;-80
2021/12/16 02:27:38;;;;;;;34.92;12.68;;;;;;;;;;2293776;58;21045;-80
2021/12/16 02:31:01;;;;;;;23.10;10.52;;;;;;;;;;2528792;54;21157;-80
2021/12/16 02:34:05;;;;;;;25.62;11.60;;;;;;;;;;2529868;54;21074;-79
2021/12/16 02:36:39;;;;;;;28.55;10.43;;;;;;;;;;2529413;54;21063;-80
2021/12/16 02:39:08;;;;;;;30.15;11.18;;;;;;;;;;2529619;54;21070;-81
2021/12/16 02:41:37;;;;;;;35.80;12.88;;;;;;;;;;2529336;54;21062;-80
2021/12/16 02:44:16;;;;;;;31.87;13.35;;;;;;;;;;2294079;58;21050;-80
2021/12/16 02:49:30;;;;;;;37.58;14.43;;;;;;;;;;2293853;58;21015;-80
2021/12/16 02:51:57;;;;;;;26.65;12.70;;;;;;;;;;2294400;58;21134;-81
2021/12/16 02:54:24;;;;;;;28.35;13.00;;;;;;;;;;2529670;54;21149;-81
2021/12/16 02:56:51;;;;;;;32.38;13.15;;;;;;;;;;2294003;58;21202;-79
2021/12/16 02:59:22;;;;;;;34.13;12.60;;;;;;;;;;2293546;58;21071;-79
2021/12/16 03:01:52;;;;;;;23.50;11.00;;;;;;;;;;2293964;58;21110;-79
2021/12/16 03:04:20;;;;;;;31.12;13.05;;;;;;;;;;2293899;58;21440;-79
2021/12/16 03:06:50;;;;;;;41.83;15.38;;;;;;;;;;2293468;58;21102;-79
2021/12/16 03:09:22;;;;;;;29.92;11.70;;;;;;;;;;2528797;53;21118;-79
2021/12/16 03:12:15;;;;;;;41.67;13.80;;;;;;;;;;2294087;58;21054;-79
2021/12/16 03:14:48;;;;;;;36.90;14.27;;;;;;;;;;2293996;58;21058;-79
2021/12/16 03:17:21;;;;;;;36.87;13.73;;;;;;;;;;2294419;58;21066;-80
2021/12/16 03:20:00;;;;;;;34.72;13.43;;;;;;;;;;2293899;58;21113;-79
2021/12/16 03:22:58;;;;;;;38.10;14.13;;;;;;;;;;2293363;58;21050;-79
2021/12/16 03:25:36;;;;;;;35.72;15.07;;;;;;;;;;2294624;58;21070;-79
2021/12/16 03:31:08;;;;;;;36.35;14.98;;;;;;;;;;2294270;58;21147;-80
2021/12/16 03:33:56;;;;;;;27.62;13.27;;;;;;;;;;2529585;54;21034;-80
2021/12/16 03:36:29;;;;;;;33.92;14.98;;;;;;;;;;2294507;58;21061;-80
2021/12/16 03:38:59;;;;;;;37.58;14.90;;;;;;;;;;2294159;58;21110;-79
2021/12/16 03:41:26;;;;;;;41.88;15.07;;;;;;;;;;2294503;58;21054;-79
2021/12/16 03:43:54;;;;;;;22.15;9.93;;;;;;;;;;2294300;58;21058;-80
2021/12/16 03:46:26;;;;;;;25.00;12.37;;;;;;;;;;2529575;54;21064;-79
2021/12/16 03:48:56;;;;;;;23.97;11.50;;;;;;;;;;2530216;54;21109;-80
2021/12/16 03:51:25;;;;;;;29.58;13.25;;;;;;;;;;2529895;54;21399;-80
2021/12/16 03:53:54;;;;;;;36.65;14.93;;;;;;;;;;2294250;58;21074;-79
2021/12/16 03:56:21;;;;;;;26.35;12.35;;;;;;;;;;2294046;58;21181;-79
2021/12/16 03:58:48;;;;;;;30.42;14.43;;;;;;;;;;2293797;58;21129;-80
2021/12/16 04:01:22;;;;;;;32.55;12.70;;;;;;;;;;2294546;58;21125;-80
2021/12/16 04:03:50;;;;;;;29.90;13.20;;;;;;;;;;2294610;58;21054;-79
2021/12/16 04:06:17;;;;;;;34.08;14.68;;;;;;;;;;2294015;58;21257;-79
2021/12/16 04:08:44;;;;;;;30.45;13.70;;;;;;;;;;2529471;54;21411;-77
2021/12/16 04:11:18;;;;;;;34.22;14.77;;;;;;;;;;2293972;58;21039;-78
2021/12/16 04:13:54;;;;;;;33.65;14.80;;;;;;;;;;2294801;58;21063;-79
2021/12/16 04:16:21;;;;;;;29.75;13.07;;;;;;;;;;2294062;58;21062;-80
2021/12/16 04:18:48;;;;;;;34.33;15.88;;;;;;;;;;2529566;54;21121;-79
2021/12/16 04:21:19;;;;;;;32.78;14.32;;;;;;;;;;2529723;54;21058;-80
2021/12/16 04:23:46;;;;;;;35.78;14.40;;;;;;;;;;2530233;53;21058;-80
2021/12/16 04:26:13;;;;;;;41.97;17.55;;;;;;;;;;2294458;58;21095;-80
2021/12/16 04:28:40;;;;;;;39.15;15.20;;;;;;;;;;2294549;58;21077;-79
2021/12/16 04:31:07;;;;;;;35.85;14.90;;;;;;;;;;2294224;58;21054;-79
2021/12/16 04:33:39;;;;;;;40.50;16.33;;;;;;;;;;2294330;58;21058;-79
2021/12/16 04:36:07;;;;;;;40.03;15.10;;;;;;;;;;2529305;53;21145;-79
2021/12/16 04:38:35;;;;;;;40.03;14.77;;;;;;;;;;2294709;58;21142;-79
2021/12/16 04:41:02;;;;;;;45.45;17.10;;;;;;;;;;2529113;54;21078;-79
2021/12/16 04:43:38;;;;;;;48.33;18.87;;;;;;;;;;2530052;54;21154;-79
2021/12/16 04:46:06;;;;;;;50.08;18.52;;;;;;;;;;2533591;53;69159;-75
2021/12/16 04:48:33;;;;;;;44.22;18.70;;;;;;;;;;2318980;57;21053;-75
2021/12/16 04:51:00;;;;;;;50.12;18.77;;;;;;;;;;2338572;57;21049;-76
2021/12/16 04:53:27;;;;;;;42.22;17.95;;;;;;;;;;2339178;57;21203;-76
2021/12/16 04:55:54;;;;;;;45.63;17.87;;;;;;;;;;2339748;57;21603;-76
2021/12/16 04:58:22;;;;;;;54.58;18.75;;;;;;;;;;2339470;57;21128;-75
2021/12/16 05:00:49;;;;;;;53.42;20.45;;;;;;;;;;2339431;57;21065;-76
2021/12/16 05:03:16;;;;;;;46.60;19.00;;;;;;;;;;2339815;57;21044;-76
2021/12/16 05:05:43;;;;;;;43.33;18.10;;;;;;;;;;2338854;57;21061;-75
2021/12/16 05:08:10;;;;;;;49.63;19.37;;;;;;;;;;2419500;53;21554;-76
2021/12/16 05:10:37;;;;;;;54.65;20.70;;;;;;;;;;2339328;57;21124;-75
2021/12/16 05:13:05;;;;;;;61.80;22.42;;;;;;;;;;2339934;57;21111;-75
2021/12/16 05:15:36;;;;;;;64.78;21.15;;;;;;;;;;2339635;57;21546;-75
2021/12/16 05:18:06;;;;;;;56.63;21.55;;;;;;;;;;2339836;57;21049;-75
2021/12/16 05:20:35;;;;;;;62.13;22.25;;;;;;;;;;2339561;57;21642;-76
2021/12/16 05:26:02;;;;;;;64.60;23.12;;;;;;;;;;2338598;53;20992;-75
2021/12/16 05:28:30;;;;;;;50.45;20.92;;;;;;;;;;2339445;57;21045;-75
2021/12/16 05:30:57;;;;;;;45.15;19.20;;;;;;;;;;2339470;57;21044;-75
2021/12/16 05:33:24;;;;;;;52.28;20.62;;;;;;;;;;2339052;57;21068;-75
2021/12/16 05:35:52;;;;;;;59.17;20.80;;;;;;;;;;2339554;57;21061;-75
2021/12/16 05:38:19;;;;;;;48.97;18.92;;;;;;;;;;2339832;57;21155;-75
2021/12/16 05:40:46;;;;;;;52.20;19.58;;;;;;;;;;2339475;57;21120;-75
2021/12/16 05:43:15;;;;;;;54.05;18.92;;;;;;;;;;2340105;57;21044;-75
2021/12/16 05:45:42;;;;;;;46.45;18.80;;;;;;;;;;2339612;57;21049;-75
2021/12/16 05:48:11;;;;;;;47.13;18.33;;;;;;;;;;2339833;57;21085;-75
2021/12/16 05:50:40;;;;;;;42.72;17.42;;;;;;;;;;2585487;53;21069;-75
2021/12/16 05:53:07;;;;;;;36.35;15.95;;;;;;;;;;2339979;57;21048;-75
2021/12/16 05:55:34;;;;;;;51.00;20.08;;;;;;;;;;2339935;57;21041;-75
2021/12/16 05:58:04;;;;;;;43.42;17.48;;;;;;;;;;2339565;57;21077;-75
2021/12/16 06:00:32;;;;;;;51.20;18.30;;;;;;;;;;2339827;57;21068;-75
2021/12/16 06:03:00;;;;;;;51.63;17.77;;;;;;;;;;2339596;57;21060;-75
2021/12/16 06:05:27;;;;;;;42.83;17.55;;;;;;;;;;2339979;57;21045;-75
2021/12/16 06:07:55;;;;;;;51.33;17.02;;;;;;;;;;2339752;57;21056;-75
2021/12/16 06:13:09;;;;;;;38.35;16.60;;;;;;;;;;2357010;53;21053;-75
2021/12/16 06:15:45;;;;;;;41.58;17.30;;;;;;;;;;2340302;57;21192;-75
2021/12/16 06:26:40;;;;;;;38.70;16.83;;;;;;;;;;2339893;53;21583;-74
2021/12/16 06:29:07;;;;;;;39.92;15.93;;;;;;;;;;2339596;57;21048;-74
2021/12/16 06:31:34;;;;;;;41.90;15.35;;;;;;;;;;2340141;57;21449;-75
2021/12/16 06:34:01;;;;;;;45.50;17.17;;;;;;;;;;2340343;57;21057;-75
2021/12/16 06:36:29;;;;;;;35.60;15.27;;;;;;;;;;2340235;57;21053;-74
2021/12/16 06:38:56;;;;;;;35.25;15.35;;;;;;;;;;2339704;57;21176;-75
2021/12/16 06:41:23;;;;;;;37.17;16.80;;;;;;;;;;2340187;57;21125;-75
2021/12/16 06:43:53;;;;;;;38.75;15.93;;;;;;;;;;2340072;57;21148;-75
2021/12/16 06:46:29;;;;;;;33.67;14.10;;;;;;;;;;2340359;57;21120;-75
2021/12/16 06:48:58;;;;;;;40.03;14.23;;;;;;;;;;2497329;53;21045;-75
2021/12/16 06:51:36;;;;;;;45.00;15.93;;;;;;;;;;2340574;57;21124;-75
2021/12/16 06:54:07;;;;;;;33.80;13.48;;;;;;;;;;2339908;57;21040;-75
2021/12/16 06:56:41;;;;;;;31.42;12.93;;;;;;;;;;2340314;57;21065;-75
2021/12/16 06:59:19;;;;;;;31.15;12.37;;;;;;;;;;2339781;57;21450;-75
2021/12/16 07:01:59;;;;;;;31.80;13.95;;;;;;;;;;2340524;57;21112;-75
2021/12/16 07:04:26;;;;;;;38.38;14.50;;;;;;;;;;2340283;57;21116;-75
2021/12/16 07:06:54;;;;;;;35.65;14.20;;;;;;;;;;2339880;57;21061;-75
2021/12/16 07:09:21;;;;;;;34.92;14.87;;;;;;;;;;2585396;53;21065;-74
2021/12/16 07:11:52;;;;;;;33.28;14.80;;;;;;;;;;2339814;57;21057;-74
2021/12/16 07:14:22;;;;;;;34.20;14.68;;;;;;;;;;2340071;57;21120;-74
2021/12/16 07:16:51;;;;;;;38.33;14.05;;;;;;;;;;2375639;53;21104;-75
2021/12/16 07:19:18;;;;;;;32.47;13.35;;;;;;;;;;2338973;57;21141;-75
2021/12/16 07:21:46;;;;;;;46.85;17.25;;;;;;;;;;2339265;57;21057;-75
2021/12/16 07:24:14;;;;;;;42.80;14.82;;;;;;;;;;2339756;57;21061;-75
2021/12/16 07:26:42;;;;;;;39.55;15.98;;;;;;;;;;2339442;57;21045;-75
2021/12/16 07:29:09;;;;;;;33.42;14.07;;;;;;;;;;2339276;57;21069;-75
2021/12/16 07:31:38;;;;;;;32.95;14.85;;;;;;;;;;2340176;57;21128;-75
2021/12/16 07:34:06;;;;;;;40.40;15.82;;;;;;;;;;2339993;57;21065;-75
2021/12/16 07:36:34;;;;;;;38.10;15.23;;;;;;;;;;2338582;57;21041;-75
2021/12/16 07:39:02;;;;;;;36.58;14.68;;;;;;;;;;2339241;57;21053;-74
2021/12/16 07:41:32;;;;;;;35.03;15.38;;;;;;;;;;2337512;57;21061;-75
2021/12/16 07:44:09;;;;;;;29.58;14.07;;;;;;;;;;2339192;57;21058;-75
2021/12/16 07:46:37;;;;;;;28.60;13.43;;;;;;;;;;2339375;57;21081;-75
2021/12/16 07:49:04;;;;;;;30.15;12.00;;;;;;;;;;2338651;57;21651;-75
2021/12/16 07:51:32;;;;;;;28.83;11.20;;;;;;;;;;2452030;53;21204;-75
2021/12/16 07:53:59;;;;;;;28.10;12.43;;;;;;;;;;2338823;57;21053;-75
2021/12/16 07:56:26;;;;;;;29.20;11.63;;;;;;;;;;2384990;53;21076;-75
2021/12/16 07:58:53;;;;;;;21.05;9.95;;;;;;;;;;2429073;53;21136;-75
2021/12/16 08:01:21;;;;;;;34.55;12.50;;;;;;;;;;2339594;57;21057;-75
2021/12/16 08:03:49;;;;;;;19.58;9.65;;;;;;;;;;2339640;57;21068;-75
2021/12/16 08:06:21;;;;;;;32.40;12.37;;;;;;;;;;2339465;57;21068;-75
2021/12/16 08:08:48;;;;;;;22.85;9.07;;;;;;;;;;2497796;53;21129;-75
2021/12/16 08:11:15;;;;;;;20.73;10.43;;;;;;;;;;2339491;57;21116;-75
2021/12/16 08:13:42;;;;;;;25.20;10.13;;;;;;;;;;2339412;57;21045;-75
2021/12/16 08:16:10;;;;;;;25.58;10.88;;;;;;;;;;2339390;57;21120;-75
2021/12/16 08:18:37;;;;;;;20.33;9.95;;;;;;;;;;2342260;53;21073;-75
2021/12/16 08:21:04;;;;;;;23.08;10.32;;;;;;;;;;2345678;53;21057;-75
2021/12/16 08:23:31;;;;;;;28.70;10.52;;;;;;;;;;2339333;57;21212;-75
2021/12/16 08:25:59;;;;;;;18.75;9.18;;;;;;;;;;2339766;57;21064;-75
2021/12/16 08:28:28;;;;;;;25.75;9.98;;;;;;;;;;2338768;57;21068;-75
2021/12/16 08:30:55;;;;;;;26.87;9.82;;;;;;;;;;2339483;57;21112;-76
2021/12/16 08:33:22;;;;;;;17.10;9.32;;;;;;;;;;2339425;57;21056;-75
2021/12/16 08:35:51;;;;;;;26.37;9.45;;;;;;;;;;2339827;57;21635;-76
2021/12/16 08:38:19;;;;;;;22.00;9.65;;;;;;;;;;2403767;53;21119;-75
2021/12/16 08:40:47;;;;;;;19.65;9.20;;;;;;;;;;2339226;57;21060;-75
2021/12/16 08:43:15;;;;;;;23.05;9.55;;;;;;;;;;2340000;57;22174;-75
2021/12/16 08:45:42;;;;;;;19.67;9.20;;;;;;;;;;2339740;57;21056;-75
2021/12/16 08:48:10;;;;;;;21.15;8.80;;;;;;;;;;2339642;57;21065;-75
2021/12/16 08:50:39;;;;;;;17.87;7.95;;;;;;;;;;2338710;57;21115;-75
2021/12/16 08:53:07;;;;;;;23.02;8.93;;;;;;;;;;2339354;57;21069;-75
2021/12/16 08:55:35;;;;;;;18.20;7.25;;;;;;;;;;2339449;57;21056;-75
2021/12/16 08:58:03;;;;;;;23.30;9.00;;;;;;;;;;2339737;57;21077;-75
2021/12/16 09:00:33;;;;;;;17.80;8.68;;;;;;;;;;2339166;57;21052;-75
2021/12/16 09:03:00;;;;;;;15.85;7.30;;;;;;;;;;2339827;57;21056;-75
2021/12/16 09:05:28;;;;;;;13.05;6.82;;;;;;;;;;2338118;57;21049;-75
2021/12/16 09:07:56;;;;;;;19.25;7.10;;;;;;;;;;2339859;57;21057;-75
2021/12/16 09:10:27;;;;;;;16.10;7.65;;;;;;;;;;2339219;57;21065;-75
2021/12/16 09:13:02;;;;;;;15.73;6.95;;;;;;;;;;2339681;57;21413;-76
2021/12/16 09:15:34;;;;;;;16.42;6.43;;;;;;;;;;2338844;57;21105;-75
2021/12/16 09:18:02;;;;;;;16.67;5.75;;;;;;;;;;2476294;53;21081;-75
2021/12/16 09:20:30;;;;;;;14.57;6.30;;;;;;;;;;2339598;57;21045;-75
2021/12/16 09:22:57;;;;;;;13.80;4.62;;;;;;;;;;2339342;57;21077;-75
2021/12/16 09:25:24;;;;;;;13.10;5.53;;;;;;;;;;2339658;57;21112;-75
2021/12/16 09:27:52;;;;;;;12.43;5.20;;;;;;;;;;2339415;57;21064;-75
2021/12/16 09:30:21;;;;;;;12.98;6.25;;;;;;;;;;2339565;57;21057;-75
2021/12/16 09:32:49;;;;;;;16.65;5.97;;;;;;;;;;2339877;57;21056;-75
2021/12/16 09:35:16;;;;;;;15.32;5.15;;;;;;;;;;2340112;57;21207;-75
2021/12/16 09:37:43;;;;;;;9.27;5.28;;;;;;;;;;2339853;57;21053;-75
2021/12/16 09:40:12;;;;;;;10.23;4.68;;;;;;;;;;2339851;57;21107;-75
2021/12/16 09:42:39;;;;;;;13.13;5.28;;;;;;;;;;2339976;57;21124;-75
2021/12/16 09:45:08;;;;;;;10.75;5.32;;;;;;;;;;2339501;57;21064;-76
2021/12/16 09:47:36;;;;;;;13.62;6.12;;;;;;;;;;2340181;57;21057;-75
2021/12/16 09:50:04;;;;;;;18.00;5.65;;;;;;;;;;2339426;57;21041;-75
2021/12/16 09:52:31;;;;;;;13.75;5.32;;;;;;;;;;2340336;57;21048;-75
2021/12/16 09:54:58;;;;;;;19.25;6.12;;;;;;;;;;2417971;53;21057;-75
2021/12/16 09:57:25;;;;;;;13.98;5.90;;;;;;;;;;2340033;57;21097;-75
2021/12/16 09:59:52;;;;;;;15.57;6.10;;;;;;;;;;2339612;57;21057;-75
2021/12/16 10:02:20;;;;;;;13.80;5.55;;;;;;;;;;2339343;57;21089;-75
2021/12/16 10:04:48;;;;;;;10.73;5.22;;;;;;;;;;2339814;57;21060;-75
2021/12/16 10:07:16;;;;;;;13.90;5.35;;;;;;;;;;2339778;57;21595;-75
2021/12/16 10:09:44;;;;;;;13.13;4.80;;;;;;;;;;2339936;57;21527;-75
2021/12/16 10:12:15;;;;;;;15.75;4.85;;;;;;;;;;2347515;53;21563;-75
2021/12/16 10:15:04;;;;;;;12.13;4.95;;;;;;;;;;2340068;57;21056;-75
2021/12/16 10:17:38;;;;;;;12.13;4.10;;;;;;;;;;2340073;57;21176;-73
2021/12/16 10:20:11;;;;;;;7.97;3.70;;;;;;;;;;2338897;57;21060;-75
2021/12/16 10:22:40;;;;;;;14.07;4.72;;;;;;;;;;2343510;53;21543;-74
2021/12/16 10:25:36;;;;;;;12.60;4.25;;;;;;;;;;2340153;57;21124;-73
2021/12/16 10:28:08;;;;;;;9.20;3.10;;;;;;;;;;2340221;53;21132;-75
2021/12/16 10:30:43;;;;;;;7.65;3.67;;;;;;;;;;2339745;57;21053;-76
2021/12/16 10:33:12;;;;;;;10.60;3.97;;;;;;;;;;2339966;57;21567;-75
2021/12/16 10:35:39;;;;;;;15.00;4.03;;;;;;;;;;2339714;57;21029;-75
2021/12/16 10:38:07;;;;;;;11.30;4.03;;;;;;;;;;2339995;57;21053;-75
2021/12/16 10:40:36;;;;;;;13.30;3.53;;;;;;;;;;2339589;57;21634;-75
2021/12/16 10:43:06;;;;;;;11.45;3.30;;;;;;;;;;2339493;57;21053;-75
2021/12/16 10:45:36;;;;;;;17.98;3.87;;;;;;;;;;2356263;53;69340;-80
2021/12/16 10:48:10;;;;;;;9.88;3.03;;;;;;;;;;2332771;57;21151;-80
2021/12/16 10:50:48;;;;;;;11.20;3.30;;;;;;;;;;2576719;54;21066;-82
2021/12/16 10:53:15;;;;;;;14.73;4.22;;;;;;;;;;2333048;57;21589;-81
2021/12/16 10:55:56;;;;;;;8.63;3.55;;;;;;;;;;2584124;53;21026;-81
2021/12/16 10:58:47;;;;;;;9.93;3.25;;;;;;;;;;2360111;57;21060;-81
2021/12/16 11:01:30;;;;;;;15.05;3.85;;;;;;;;;;2360242;57;21099;-80
2021/12/16 11:03:57;;;;;;;10.02;4.10;;;;;;;;;;2610055;53;21118;-82
2021/12/16 11:06:28;;;;;;;16.00;3.50;;;;;;;;;;2609982;52;21110;-80
2021/12/16 11:08:55;;;;;;;15.82;4.70;;;;;;;;;;2610080;53;21012;-80
2021/12/16 11:11:27;;;;;;;13.68;4.10;;;;;;;;;;2610200;53;21107;-80
2021/12/16 11:14:03;;;;;;;13.90;3.55;;;;;;;;;;2359812;57;21040;-81
2021/12/16 11:16:31;;;;;;;13.23;3.55;;;;;;;;;;2610056;52;21115;-80
2021/12/16 11:18:58;;;;;;;13.43;3.85;;;;;;;;;;2359907;57;21734;-82
2021/12/16 11:21:32;;;;;;;14.93;3.85;;;;;;;;;;2610349;53;21044;-82
2021/12/16 11:23:59;;;;;;;14.63;4.75;;;;;;;;;;2359614;57;21040;-82
2021/12/16 11:26:29;;;;;;;16.75;5.78;;;;;;;;;;2359178;57;21534;-80
2021/12/16 11:28:56;;;;;;;17.85;5.22;;;;;;;;;;2359481;57;21548;-80
2021/12/16 11:31:25;;;;;;;17.30;4.97;;;;;;;;;;2609271;53;21068;-79
2021/12/16 11:33:52;;;;;;;13.30;4.07;;;;;;;;;;2360205;57;21127;-80
2021/12/16 11:36:21;;;;;;;22.35;4.95;;;;;;;;;;2610194;52;21052;-80
2021/12/16 11:38:50;;;;;;;14.90;4.90;;;;;;;;;;2610399;53;21032;-78
2021/12/16 11:41:19;;;;;;;11.10;4.10;;;;;;;;;;2360420;57;21059;-82
2021/12/16 11:43:49;;;;;;;14.63;3.60;;;;;;;;;;2360096;57;21148;-80
2021/12/16 11:46:19;;;;;;;15.55;4.75;;;;;;;;;;2360096;57;21091;-81
2021/12/16 11:48:46;;;;;;;25.73;4.50;;;;;;;;;;2609945;53;21399;-81
2021/12/16 11:51:14;;;;;;;15.38;3.92;;;;;;;;;;2610662;53;21024;-81
2021/12/16 11:53:44;;;;;;;13.65;4.15;;;;;;;;;;2610411;53;21016;-79
2021/12/16 11:56:12;;;;;;;15.05;3.78;;;;;;;;;;2360096;57;21028;-78
2021/12/16 11:58:40;;;;;;;12.60;3.90;;;;;;;;;;2360157;57;21075;-80
2021/12/16 12:01:12;;;;;;;24.48;6.22;;;;;;;;;;2609879;53;21031;-80
2021/12/16 12:03:39;;;;;;;13.15;3.75;;;;;;;;;;2360487;57;21087;-80
2021/12/16 12:06:06;;;;;;;18.83;5.03;;;;;;;;;;2610551;52;21061;-79
2021/12/16 12:08:33;;;;;;;15.73;4.62;;;;;;;;;;2358740;57;21016;-78
2021/12/16 12:11:03;;;;;;;16.23;4.93;;;;;;;;;;2358277;57;21035;-78
2021/12/16 12:13:34;;;;;;;16.95;4.80;;;;;;;;;;2608402;53;21076;-76
2021/12/16 12:16:03;;;;;;;18.55;5.30;;;;;;;;;;2607559;52;21071;-78
2021/12/16 12:18:32;;;;;;;18.85;5.82;;;;;;;;;;2608455;53;21036;-79
2021/12/16 12:21:14;;;;;;;17.15;5.03;;;;;;;;;;2359441;57;21067;-80
2021/12/16 12:23:42;;;;;;;21.67;4.57;;;;;;;;;;2360086;57;21040;-80
2021/12/16 12:26:14;;;;;;;15.40;4.72;;;;;;;;;;2360103;57;21167;-79
2021/12/16 12:28:41;;;;;;;14.20;4.57;;;;;;;;;;2359967;57;21024;-79
2021/12/16 12:31:08;;;;;;;19.42;4.97;;;;;;;;;;2360207;57;21407;-81
2021/12/16 12:33:35;;;;;;;18.30;5.53;;;;;;;;;;2609997;53;21095;-80
2021/12/16 12:36:02;;;;;;;15.98;5.75;;;;;;;;;;2610229;52;21084;-80
2021/12/16 12:38:29;;;;;;;18.52;5.43;;;;;;;;;;2360309;57;21040;-80
2021/12/16 12:40:56;;;;;;;25.37;7.57;;;;;;;;;;2359875;57;21619;-80
2021/12/16 12:43:23;;;;;;;20.70;6.87;;;;;;;;;;2360024;57;21028;-81
2021/12/16 12:45:50;;;;;;;13.98;6.57;;;;;;;;;;2360227;57;21158;-80
2021/12/16 12:48:19;;;;;;;28.10;7.43;;;;;;;;;;2610502;53;21588;-81
2021/12/16 12:50:47;;;;;;;22.65;8.15;;;;;;;;;;2359720;57;21032;-81
2021/12/16 12:53:16;;;;;;;20.42;7.87;;;;;;;;;;2610494;53;21123;-80
2021/12/16 12:55:44;;;;;;;18.25;8.45;;;;;;;;;;2360574;57;21111;-79
2021/12/16 12:58:12;;;;;;;24.30;8.65;;;;;;;;;;2360794;57;21075;-78
2021/12/16 13:00:42;;;;;;;20.83;8.38;;;;;;;;;;2609287;53;21071;-79
2021/12/16 13:03:11;;;;;;;16.73;6.37;;;;;;;;;;2358914;57;21027;-80
2021/12/16 13:05:38;;;;;;;17.05;6.90;;;;;;;;;;2359462;57;21016;-79
2021/12/16 13:08:06;;;;;;;20.40;6.78;;;;;;;;;;2359025;57;21115;-79
2021/12/16 13:10:36;;;;;;;22.55;7.57;;;;;;;;;;2608872;53;21024;-79
2021/12/16 13:13:26;;;;;;;19.55;6.68;;;;;;;;;;2359012;57;21310;-79
2021/12/16 13:16:11;;;;;;;19.48;6.20;;;;;;;;;;2359493;57;21103;-79
2021/12/16 13:24:28;;;;;;;20.42;5.65;;;;;;;;;;2358435;57;20983;-78
2021/12/16 13:27:05;;;;;;;16.17;5.05;;;;;;;;;;2358920;57;21036;-79
2021/12/16 13:29:37;;;;;;;17.60;4.57;;;;;;;;;;2608806;53;21028;-78
2021/12/16 13:32:11;;;;;;;14.65;3.85;;;;;;;;;;2359332;57;21024;-80
2021/12/16 13:34:53;;;;;;;15.75;3.90;;;;;;;;;;2359334;57;21099;-79
2021/12/16 13:37:23;;;;;;;14.60;3.28;;;;;;;;;;2609303;52;21024;-78
2021/12/16 13:39:52;;;;;;;11.07;3.62;;;;;;;;;;2608835;53;21028;-79
2021/12/16 13:42:19;;;;;;;17.40;4.43;;;;;;;;;;2359242;57;21631;-80
2021/12/16 13:44:52;;;;;;;16.52;3.90;;;;;;;;;;2358749;57;21024;-78
2021/12/16 13:47:31;;;;;;;9.43;3.75;;;;;;;;;;2609168;52;21069;-79
2021/12/16 13:58:49;;;;;;;20.05;3.85;;;;;;;;;;2359070;57;21063;-78
2021/12/16 14:01:32;;;;;;;17.87;3.67;;;;;;;;;;2358737;57;21068;-79
2021/12/16 14:04:13;;;;;;;15.30;3.97;;;;;;;;;;2609361;53;21115;-80
2021/12/16 14:06:55;;;;;;;11.93;3.45;;;;;;;;;;2609307;52;21110;-78
2021/12/16 14:09:28;;;;;;;15.27;3.28;;;;;;;;;;2608562;53;21037;-79
2021/12/16 14:14:52;;;;;;;12.80;4.40;;;;;;;;;;2359797;57;21008;-80
2021/12/16 14:17:40;;;;;;;20.70;4.57;;;;;;;;;;2359909;57;21088;-81
2021/12/16 14:23:06;;;;;;;17.62;3.78;;;;;;;;;;2360396;57;20948;-81
2021/12/16 14:25:39;;;;;;;19.75;3.65;;;;;;;;;;2610366;52;21056;-80
2021/12/16 14:31:10;;;;;;;14.82;3.80;;;;;;;;;;2359170;57;21028;-80
2021/12/16 14:42:15;;;;;;;17.90;4.45;;;;;;;;;;2609101;53;21139;-79
2021/12/16 14:50:20;;;;;;;13.43;3.70;;;;;;;;;;2358277;57;21023;-79
2021/12/16 14:52:47;;;;;;;22.77;5.00;;;;;;;;;;2358676;57;21080;-80
2021/12/16 14:55:15;;;;;;;14.52;4.53;;;;;;;;;;2358498;57;21036;-79
2021/12/16 14:57:44;;;;;;;14.27;3.75;;;;;;;;;;2358401;57;21362;-80
2021/12/16 15:00:16;;;;;;;21.05;5.03;;;;;;;;;;2607993;53;21120;-80
2021/12/16 15:02:44;;;;;;;22.73;4.28;;;;;;;;;;2359080;57;21713;-82
2021/12/16 15:05:22;;;;;;;21.70;5.20;;;;;;;;;;2359532;57;21067;-81
2021/12/16 15:07:49;;;;;;;15.77;3.58;;;;;;;;;;2360082;57;20997;-79
2021/12/16 15:10:17;;;;;;;16.60;4.43;;;;;;;;;;2609717;53;21032;-81
2021/12/16 15:12:50;;;;;;;17.55;4.65;;;;;;;;;;2359902;57;21083;-81
2021/12/16 15:15:24;;;;;;;;;;;;;;;;;;2613622;52;21107;-80
2021/12/16 15:32:55;;;;;;;24.85;4.30;;;;;;;;;;2359552;57;20972;-82
2021/12/16 15:43:56;;;;;;;16.67;4.55;;;;;;;;;;2360425;57;21032;-80
2021/12/16 15:46:24;;;;;;;24.60;4.25;;;;;;;;;;2360196;57;21539;-81
2021/12/16 15:48:52;;;;;;;12.73;4.03;;;;;;;;;;2609674;53;21086;-80
2021/12/16 15:51:21;;;;;;;14.65;4.70;;;;;;;;;;2360092;57;21013;-81
2021/12/16 15:53:49;;;;;;;15.93;4.40;;;;;;;;;;2359924;57;21036;-81
2021/12/16 15:56:17;;;;;;;25.23;5.25;;;;;;;;;;2358354;57;21024;-81
2021/12/16 15:58:45;;;;;;;25.37;5.93;;;;;;;;;;2358688;57;21036;-80
2021/12/16 16:01:13;;;;;;;17.42;5.45;;;;;;;;;;2359255;57;21052;-80
2021/12/16 16:03:40;;;;;;;17.37;5.82;;;;;;;;;;2359430;57;21075;-80
2021/12/16 16:06:08;;;;;;;18.35;6.65;;;;;;;;;;2610081;52;21105;-81
2021/12/16 16:08:39;;;;;;;18.40;6.32;;;;;;;;;;2610217;53;21001;-81
2021/12/16 16:11:07;;;;;;;20.42;5.12;;;;;;;;;;2359245;57;22073;-81
2021/12/16 16:13:41;;;;;;;21.48;6.62;;;;;;;;;;2609734;53;21147;-80
2021/12/16 16:16:08;;;;;;;22.35;6.35;;;;;;;;;;2360043;57;21016;-81
2021/12/16 16:18:40;;;;;;;29.45;6.70;;;;;;;;;;2359782;57;21020;-80
2021/12/16 16:21:09;;;;;;;16.87;5.68;;;;;;;;;;2360114;57;21084;-78
2021/12/16 16:23:38;;;;;;;24.48;6.40;;;;;;;;;;2609646;53;21012;-79
2021/12/16 16:26:06;;;;;;;21.20;6.25;;;;;;;;;;2609697;52;21865;-79
2021/12/16 16:28:34;;;;;;;19.80;5.72;;;;;;;;;;2359464;57;21032;-80
2021/12/16 16:31:04;;;;;;;17.90;5.85;;;;;;;;;;2609570;53;21048;-79
2021/12/16 16:33:34;;;;;;;15.82;5.97;;;;;;;;;;2609537;53;21104;-80
2021/12/16 16:36:04;;;;;;;22.13;5.07;;;;;;;;;;2359385;57;21032;-79
2021/12/16 16:38:33;;;;;;;18.45;5.97;;;;;;;;;;2609532;53;21111;-81
2021/12/16 16:41:02;;;;;;;18.00;6.25;;;;;;;;;;2359334;57;21040;-81
2021/12/16 16:43:31;;;;;;;26.40;7.28;;;;;;;;;;2358932;57;21104;-79
2021/12/16 16:45:59;;;;;;;26.02;6.82;;;;;;;;;;2355655;54;68344;-73
2021/12/16 16:48:31;;;;;;;19.25;6.37;;;;;;;;;;2335503;57;21531;-73
2021/12/16 16:51:05;;;;;;;20.10;7.87;;;;;;;;;;2334559;57;21037;-74
2021/12/16 16:53:43;;;;;;;18.58;7.70;;;;;;;;;;2469020;53;21338;-74
2021/12/16 16:56:10;;;;;;;23.60;8.50;;;;;;;;;;2334635;55;21567;-76
2021/12/16 16:58:37;;;;;;;12.65;6.47;;;;;;;;;;2334478;57;21081;-76
2021/12/16 17:01:05;;;;;;;21.02;7.43;;;;;;;;;;2341521;53;21029;-77
2021/12/16 17:03:32;;;;;;;21.92;7.68;;;;;;;;;;2334614;57;21029;-76
2021/12/16 17:06:02;;;;;;;27.87;9.85;;;;;;;;;;2335451;53;21168;-75
2021/12/16 17:08:29;;;;;;;20.95;8.07;;;;;;;;;;2334578;57;21045;-74
2021/12/16 17:11:01;;;;;;;31.35;9.15;;;;;;;;;;2333971;57;21088;-75
2021/12/16 17:13:38;;;;;;;20.45;9.00;;;;;;;;;;2334509;57;21034;-73
2021/12/16 17:18:53;;;;;;;18.42;8.27;;;;;;;;;;2334625;53;21001;-74
2021/12/16 17:21:22;;;;;;;26.83;10.25;;;;;;;;;;2334183;57;21559;-73
2021/12/16 17:23:51;;;;;;;28.10;10.50;;;;;;;;;;2336888;53;21588;-73
2021/12/16 17:26:20;;;;;;;32.40;8.68;;;;;;;;;;2333131;57;21077;-74